AAL134 KLAX-EGLL
Flight info
| Callsign | AAL134 |
|---|---|
| Flight time | N/A |
| Altitude | 35000 |
| Route | OSHNN1 BEALE DCT EEVUN DCT BCE DCT MBW DCT DPR/N0475F370 DCT GFK DCT GABOV DCT VIRSO DCT KLIPS/M084F390 DCT RADUN DCT 61N050W 62N040W 61N030W 59N020W DCT AGORI/N0482F390 DCT OSBOX DCT MIMKU DCT KELLY L10 WAL UY53 NUGRA NUGRA2H |
| Aircraft | B772/H-SDE2E3FGHIJ5LORVWXY/LB1D1 |
Departure
| Time | 2026-04-22 21:47 |
|---|---|
| Airport | Los Angeles International Airport (KLAX) |
Arrival
| Time | N/A |
|---|---|
| Airport | London Heathrow Airport (EGLL) |
| Time | Latitude | Longitude | Altitude | Speed | Heading |
|---|---|---|---|---|---|
| 2026-04-22 21:26 | 33.94262 | -118.41108 | 97 ft | 0 kts | 83° |
| 2026-04-22 21:35 | 33.94262 | -118.41114 | 97 ft | 2 kts | 84° |
| 2026-04-22 21:35 | 33.94260 | -118.41137 | 97 ft | 3 kts | 89° |
| 2026-04-22 21:35 | 33.94260 | -118.41161 | 97 ft | 3 kts | 95° |
| 2026-04-22 21:36 | 33.94263 | -118.41185 | 97 ft | 3 kts | 104° |
| 2026-04-22 21:36 | 33.94270 | -118.41207 | 97 ft | 3 kts | 124° |
| 2026-04-22 21:36 | 33.94281 | -118.41222 | 97 ft | 2 kts | 165° |
| 2026-04-22 21:36 | 33.94285 | -118.41224 | 97 ft | 0 kts | 173° |
| 2026-04-22 21:39 | 33.94250 | -118.41218 | 99 ft | 11 kts | 173° |
| 2026-04-22 21:39 | 33.94160 | -118.41204 | 98 ft | 13 kts | 172° |
| 2026-04-22 21:39 | 33.94068 | -118.41190 | 101 ft | 13 kts | 173° |
| 2026-04-22 21:39 | 33.93976 | -118.41177 | 98 ft | 13 kts | 173° |
| 2026-04-22 21:40 | 33.93884 | -118.41164 | 99 ft | 13 kts | 173° |
| 2026-04-22 21:40 | 33.93792 | -118.41146 | 100 ft | 13 kts | 158° |
| 2026-04-22 21:40 | 33.93770 | -118.41058 | 99 ft | 12 kts | 82° |
| 2026-04-22 21:40 | 33.93781 | -118.40962 | 98 ft | 12 kts | 83° |
| 2026-04-22 21:41 | 33.93793 | -118.40847 | 98 ft | 16 kts | 83° |
| 2026-04-22 21:41 | 33.93807 | -118.40714 | 98 ft | 16 kts | 83° |
| 2026-04-22 21:41 | 33.93818 | -118.40581 | 99 ft | 18 kts | 82° |
| 2026-04-22 21:41 | 33.93837 | -118.40413 | 101 ft | 22 kts | 82° |
| 2026-04-22 21:42 | 33.93858 | -118.40208 | 100 ft | 26 kts | 83° |
| 2026-04-22 21:42 | 33.93881 | -118.39989 | 100 ft | 26 kts | 83° |
| 2026-04-22 21:42 | 33.93903 | -118.39770 | 100 ft | 26 kts | 84° |
| 2026-04-22 21:42 | 33.93925 | -118.39551 | 100 ft | 26 kts | 82° |
| 2026-04-22 21:43 | 33.93948 | -118.39331 | 98 ft | 26 kts | 83° |
| 2026-04-22 21:43 | 33.93970 | -118.39112 | 100 ft | 26 kts | 83° |
| 2026-04-22 21:43 | 33.93993 | -118.38893 | 98 ft | 26 kts | 83° |
| 2026-04-22 21:43 | 33.94015 | -118.38674 | 102 ft | 26 kts | 83° |
| 2026-04-22 21:44 | 33.94036 | -118.38463 | 102 ft | 23 kts | 83° |
| 2026-04-22 21:44 | 33.94044 | -118.38383 | 100 ft | 3 kts | 83° |
| 2026-04-22 21:44 | 33.94042 | -118.38358 | 100 ft | 3 kts | 111° |
| 2026-04-22 21:44 | 33.94041 | -118.38356 | 100 ft | 0 kts | 114° |
| 2026-04-22 21:46 | 33.94040 | -118.38355 | 102 ft | 2 kts | 115° |
| 2026-04-22 21:46 | 33.94009 | -118.38333 | 105 ft | 9 kts | 164° |
| 2026-04-22 21:46 | 33.93953 | -118.38353 | 105 ft | 8 kts | 244° |
| 2026-04-22 21:46 | 33.93945 | -118.38401 | 105 ft | 11 kts | 261° |
| 2026-04-22 21:47 | 33.93908 | -118.38759 | 100 ft | 75 kts | 263° |
| 2026-04-22 21:47 | 33.93819 | -118.39624 | 102 ft | 131 kts | 263° |
| 2026-04-22 21:47 | 33.93686 | -118.40897 | 244 ft | 165 kts | 263° |
| 2026-04-22 21:47 | 33.93549 | -118.42252 | 849 ft | 161 kts | 263° |
| 2026-04-22 21:48 | 33.93416 | -118.43563 | 1480 ft | 160 kts | 262° |
| 2026-04-22 21:48 | 33.93281 | -118.44895 | 1880 ft | 165 kts | 263° |
| 2026-04-22 21:48 | 33.92914 | -118.46225 | 1898 ft | 174 kts | 234° |
| 2026-04-22 21:48 | 33.92117 | -118.47378 | 2053 ft | 187 kts | 234° |
| 2026-04-22 21:49 | 33.91284 | -118.48668 | 2182 ft | 205 kts | 234° |
| 2026-04-22 21:49 | 33.90381 | -118.50038 | 2378 ft | 220 kts | 231° |
| 2026-04-22 21:49 | 33.89080 | -118.51088 | 2483 ft | 239 kts | 197° |
| 2026-04-22 21:49 | 33.87370 | -118.51198 | 2681 ft | 254 kts | 182° |
| 2026-04-22 21:50 | 33.85574 | -118.51203 | 3142 ft | 260 kts | 184° |
| 2026-04-22 21:50 | 33.83738 | -118.51262 | 3616 ft | 266 kts | 184° |
| 2026-04-22 21:50 | 33.81874 | -118.51347 | 4172 ft | 270 kts | 185° |
| 2026-04-22 21:50 | 33.79987 | -118.51448 | 4750 ft | 271 kts | 185° |
| 2026-04-22 21:51 | 33.78102 | -118.51559 | 5284 ft | 272 kts | 185° |
| 2026-04-22 21:51 | 33.76203 | -118.51675 | 5482 ft | 274 kts | 186° |
| 2026-04-22 21:51 | 33.74291 | -118.51796 | 5735 ft | 276 kts | 186° |
| 2026-04-22 21:52 | 33.70472 | -118.51312 | 6071 ft | 289 kts | 150° |
| 2026-04-22 21:52 | 33.69047 | -118.49620 | 6405 ft | 292 kts | 119° |
| 2026-04-22 21:52 | 33.68275 | -118.47387 | 6669 ft | 290 kts | 108° |
| 2026-04-22 21:52 | 33.67610 | -118.45082 | 7019 ft | 294 kts | 108° |
| 2026-04-22 21:53 | 33.66941 | -118.42754 | 7512 ft | 296 kts | 108° |
| 2026-04-22 21:53 | 33.66258 | -118.40408 | 7994 ft | 299 kts | 109° |
| 2026-04-22 21:53 | 33.65559 | -118.38034 | 8448 ft | 303 kts | 109° |
| 2026-04-22 21:53 | 33.64850 | -118.35641 | 8926 ft | 305 kts | 109° |
| 2026-04-22 21:54 | 33.64344 | -118.33184 | 9271 ft | 307 kts | 91° |
| 2026-04-22 21:54 | 33.64382 | -118.30611 | 9611 ft | 310 kts | 86° |
| 2026-04-22 21:54 | 33.64439 | -118.28010 | 10059 ft | 314 kts | 88° |
| 2026-04-22 21:54 | 33.64459 | -118.25344 | 10250 ft | 327 kts | 89° |
| 2026-04-22 21:55 | 33.64464 | -118.22548 | 10372 ft | 343 kts | 89° |
| 2026-04-22 21:55 | 33.64645 | -118.19656 | 10438 ft | 354 kts | 72° |
| 2026-04-22 21:55 | 33.65757 | -118.16996 | 10564 ft | 364 kts | 47° |
| 2026-04-22 21:55 | 33.67648 | -118.14939 | 10666 ft | 373 kts | 33° |
| 2026-04-22 21:56 | 33.69776 | -118.13075 | 11025 ft | 384 kts | 32° |
| 2026-04-22 21:56 | 33.71932 | -118.11198 | 11546 ft | 391 kts | 32° |
| 2026-04-22 21:56 | 33.74174 | -118.09232 | 12196 ft | 396 kts | 32° |
| 2026-04-22 21:56 | 33.76373 | -118.07286 | 12881 ft | 400 kts | 32° |
| 2026-04-22 21:57 | 33.78626 | -118.05278 | 13572 ft | 407 kts | 32° |
| 2026-04-22 21:57 | 33.80918 | -118.03225 | 14174 ft | 414 kts | 32° |
| 2026-04-22 21:57 | 33.83244 | -118.01134 | 14806 ft | 420 kts | 32° |
| 2026-04-22 21:57 | 33.85593 | -117.99018 | 15489 ft | 424 kts | 32° |
| 2026-04-22 21:58 | 33.87972 | -117.96877 | 16164 ft | 429 kts | 32° |
| 2026-04-22 21:58 | 33.90379 | -117.94710 | 16813 ft | 435 kts | 32° |
| 2026-04-22 21:58 | 33.92811 | -117.92504 | 17473 ft | 440 kts | 32° |
| 2026-04-22 21:58 | 33.95261 | -117.90263 | 18146 ft | 445 kts | 32° |
| 2026-04-22 21:59 | 33.97744 | -117.87986 | 18755 ft | 451 kts | 32° |
| 2026-04-22 21:59 | 34.00235 | -117.85706 | 19330 ft | 455 kts | 32° |
| 2026-04-22 21:59 | 34.02773 | -117.83383 | 19932 ft | 460 kts | 32° |
| 2026-04-22 21:59 | 34.05328 | -117.81043 | 20515 ft | 464 kts | 32° |
| 2026-04-22 22:00 | 34.07880 | -117.78605 | 21081 ft | 472 kts | 36° |
| 2026-04-22 22:00 | 34.10274 | -117.75857 | 21641 ft | 480 kts | 42° |
| 2026-04-22 22:00 | 34.12462 | -117.72753 | 22195 ft | 487 kts | 47° |
| 2026-04-22 22:00 | 34.14558 | -117.69589 | 22699 ft | 492 kts | 47° |
| 2026-04-22 22:01 | 34.16695 | -117.66338 | 23218 ft | 497 kts | 47° |
| 2026-04-22 22:01 | 34.18865 | -117.63059 | 23697 ft | 501 kts | 47° |
| 2026-04-22 22:01 | 34.21061 | -117.59769 | 24022 ft | 506 kts | 47° |
| 2026-04-22 22:01 | 34.23286 | -117.56461 | 24386 ft | 509 kts | 46° |
| 2026-04-22 22:02 | 34.25524 | -117.53138 | 24802 ft | 510 kts | 47° |
| 2026-04-22 22:02 | 34.27760 | -117.49789 | 25167 ft | 514 kts | 47° |
| 2026-04-22 22:02 | 34.30015 | -117.46415 | 25570 ft | 516 kts | 47° |
| 2026-04-22 22:02 | 34.32276 | -117.43035 | 26046 ft | 517 kts | 47° |
| 2026-04-22 22:03 | 34.34541 | -117.39651 | 26428 ft | 519 kts | 47° |
| 2026-04-22 22:03 | 34.36819 | -117.36248 | 26753 ft | 523 kts | 47° |
| 2026-04-22 22:03 | 34.39120 | -117.32807 | 27067 ft | 526 kts | 47° |
| 2026-04-22 22:03 | 34.41427 | -117.29350 | 27397 ft | 529 kts | 47° |
| 2026-04-22 22:04 | 34.43740 | -117.25879 | 27741 ft | 531 kts | 47° |
| 2026-04-22 22:04 | 34.46064 | -117.22387 | 28098 ft | 533 kts | 47° |
| 2026-04-22 22:04 | 34.48394 | -117.18881 | 28408 ft | 535 kts | 47° |
| 2026-04-22 22:04 | 34.50733 | -117.15358 | 28667 ft | 538 kts | 46° |
| 2026-04-22 22:05 | 34.53082 | -117.11818 | 28925 ft | 540 kts | 46° |
| 2026-04-22 22:05 | 34.55453 | -117.08262 | 29144 ft | 543 kts | 46° |
| 2026-04-22 22:05 | 34.57871 | -117.04715 | 29286 ft | 547 kts | 45° |
| 2026-04-22 22:05 | 34.60317 | -117.01170 | 29563 ft | 548 kts | 45° |
| 2026-04-22 22:06 | 34.62698 | -116.97730 | 29975 ft | 545 kts | 45° |
| 2026-04-22 22:06 | 34.65100 | -116.94248 | 30318 ft | 544 kts | 45° |
| 2026-04-22 22:06 | 34.67529 | -116.90716 | 30563 ft | 545 kts | 45° |
| 2026-04-22 22:06 | 34.69955 | -116.87173 | 30788 ft | 545 kts | 45° |
| 2026-04-22 22:07 | 34.72379 | -116.83622 | 31052 ft | 546 kts | 45° |
| 2026-04-22 22:07 | 34.74802 | -116.80070 | 31298 ft | 546 kts | 45° |
| 2026-04-22 22:07 | 34.77225 | -116.76514 | 31559 ft | 546 kts | 45° |
| 2026-04-22 22:07 | 34.79647 | -116.72958 | 31822 ft | 545 kts | 45° |
| 2026-04-22 22:08 | 34.82069 | -116.69397 | 32071 ft | 545 kts | 45° |
| 2026-04-22 22:08 | 34.84486 | -116.65842 | 32323 ft | 545 kts | 45° |
| 2026-04-22 22:08 | 34.86916 | -116.62304 | 32541 ft | 544 kts | 44° |
| 2026-04-22 22:08 | 34.89427 | -116.58857 | 32774 ft | 542 kts | 42° |
| 2026-04-22 22:09 | 34.91990 | -116.55470 | 32964 ft | 544 kts | 41° |
| 2026-04-22 22:09 | 34.94580 | -116.52097 | 33121 ft | 545 kts | 41° |
| 2026-04-22 22:09 | 34.97164 | -116.48720 | 33359 ft | 545 kts | 41° |
| 2026-04-22 22:09 | 34.99735 | -116.45327 | 33640 ft | 544 kts | 41° |
| 2026-04-22 22:10 | 35.02287 | -116.41930 | 33925 ft | 543 kts | 42° |
| 2026-04-22 22:10 | 35.04828 | -116.38524 | 34166 ft | 543 kts | 42° |
| 2026-04-22 22:10 | 35.07366 | -116.35112 | 34339 ft | 543 kts | 42° |
| 2026-04-22 22:10 | 35.09905 | -116.31690 | 34502 ft | 544 kts | 41° |
| 2026-04-22 22:11 | 35.12446 | -116.28267 | 34657 ft | 544 kts | 41° |
| 2026-04-22 22:11 | 35.14951 | -116.24887 | 34864 ft | 544 kts | 41° |
| 2026-04-22 22:11 | 35.17495 | -116.21450 | 34948 ft | 545 kts | 41° |
| 2026-04-22 22:12 | 35.22582 | -116.14579 | 35016 ft | 545 kts | 41° |
| 2026-04-22 22:12 | 35.27673 | -116.07678 | 35034 ft | 546 kts | 42° |
| 2026-04-22 22:13 | 35.32767 | -116.00766 | 35042 ft | 547 kts | 42° |
| 2026-04-22 22:13 | 35.37818 | -115.93901 | 35049 ft | 547 kts | 42° |
| 2026-04-22 22:14 | 35.42904 | -115.86974 | 35060 ft | 546 kts | 42° |
| 2026-04-22 22:14 | 35.47947 | -115.80089 | 35043 ft | 545 kts | 42° |
| 2026-04-22 22:15 | 35.53006 | -115.73168 | 35056 ft | 544 kts | 42° |
| 2026-04-22 22:15 | 35.58065 | -115.66234 | 35058 ft | 544 kts | 42° |
| 2026-04-22 22:16 | 35.63119 | -115.59292 | 35053 ft | 545 kts | 42° |
| 2026-04-22 22:16 | 35.68164 | -115.52347 | 35055 ft | 544 kts | 42° |
| 2026-04-22 22:17 | 35.73215 | -115.45382 | 35035 ft | 545 kts | 43° |
| 2026-04-22 22:17 | 35.78255 | -115.38420 | 35047 ft | 544 kts | 42° |
| 2026-04-22 22:18 | 35.83292 | -115.31442 | 35056 ft | 545 kts | 42° |
| 2026-04-22 22:18 | 35.88299 | -115.24492 | 35040 ft | 546 kts | 42° |
| 2026-04-22 22:19 | 35.93345 | -115.17475 | 35028 ft | 548 kts | 42° |
| 2026-04-22 22:19 | 35.98403 | -115.10422 | 35023 ft | 549 kts | 42° |
| 2026-04-22 22:20 | 36.03459 | -115.03359 | 34990 ft | 549 kts | 43° |
| 2026-04-22 22:20 | 36.08450 | -114.96373 | 34964 ft | 549 kts | 43° |
| 2026-04-22 22:21 | 36.13508 | -114.89276 | 34954 ft | 549 kts | 43° |
| 2026-04-22 22:21 | 36.18563 | -114.82194 | 34932 ft | 548 kts | 41° |
| 2026-04-22 22:22 | 36.23831 | -114.75381 | 34941 ft | 547 kts | 39° |
| 2026-04-22 22:22 | 36.29196 | -114.68674 | 34908 ft | 548 kts | 39° |
| 2026-04-22 22:23 | 36.34501 | -114.61990 | 34906 ft | 548 kts | 39° |
| 2026-04-22 22:23 | 36.39832 | -114.55207 | 34912 ft | 549 kts | 40° |
| 2026-04-22 22:24 | 36.45152 | -114.48403 | 34910 ft | 549 kts | 40° |
| 2026-04-22 22:24 | 36.50473 | -114.41586 | 34918 ft | 550 kts | 40° |
| 2026-04-22 22:25 | 36.55797 | -114.34756 | 34920 ft | 551 kts | 39° |
| 2026-04-22 22:25 | 36.61139 | -114.27890 | 34924 ft | 552 kts | 40° |
| 2026-04-22 22:26 | 36.66476 | -114.21014 | 34928 ft | 552 kts | 40° |
| 2026-04-22 22:26 | 36.71822 | -114.14112 | 34922 ft | 552 kts | 40° |
| 2026-04-22 22:27 | 36.77116 | -114.07261 | 34926 ft | 552 kts | 40° |
| 2026-04-22 22:27 | 36.82444 | -114.00353 | 34929 ft | 551 kts | 40° |
| 2026-04-22 22:28 | 36.87708 | -113.93516 | 34932 ft | 552 kts | 40° |
| 2026-04-22 22:28 | 36.93035 | -113.86578 | 34942 ft | 553 kts | 40° |
| 2026-04-22 22:29 | 36.98336 | -113.79658 | 34947 ft | 554 kts | 40° |